createdAt,value
2022-12-29T00:00:56.534Z,99280.38
2022-12-29T00:03:23.632Z,99281.22
2022-12-29T00:05:57.269Z,99278.13
2022-12-29T00:08:40.141Z,99271.75
2022-12-29T00:11:14.755Z,99270.53
2022-12-29T00:14:00.996Z,99268.69
2022-12-29T00:16:29.328Z,99266.03
2022-12-29T00:18:56.321Z,99271.16
2022-12-29T00:21:43.562Z,99270.13
2022-12-29T00:24:26.399Z,99265.00
2022-12-29T00:27:17.908Z,99273.59
2022-12-29T00:30:03.788Z,99268.25
2022-12-29T00:32:49.849Z,99268.88
2022-12-29T00:35:30.231Z,99270.53
2022-12-29T00:38:20.944Z,99266.63
2022-12-29T00:41:06.474Z,99273.59
2022-12-29T00:43:52.812Z,99266.19
2022-12-29T00:46:20.445Z,99273.81
2022-12-29T00:49:05.924Z,99270.09
2022-12-29T00:51:32.852Z,99273.38
2022-12-29T00:53:59.792Z,99273.16
2022-12-29T00:56:26.715Z,99270.09
2022-12-29T00:58:53.664Z,99276.03
2022-12-29T01:01:20.830Z,99283.00
2022-12-29T01:03:47.814Z,99290.84
2022-12-29T01:06:15.700Z,99285.06
2022-12-29T01:08:42.664Z,99298.03
2022-12-29T01:11:13.789Z,99291.66
2022-12-29T01:13:42.173Z,99295.75
2022-12-29T01:16:09.191Z,99298.19
2022-12-29T01:18:36.226Z,99298.00
2022-12-29T01:21:07.329Z,99293.50
2022-12-29T01:23:34.475Z,99302.09
2022-12-29T01:26:13.475Z,99297.38
2022-12-29T01:28:42.429Z,99288.31
2022-12-29T01:31:10.494Z,99293.66
2022-12-29T01:33:37.903Z,99299.00
2022-12-29T01:36:08.240Z,99297.38
2022-12-29T01:38:37.084Z,99294.47
2022-12-29T01:41:05.662Z,99293.66
2022-12-29T01:43:52.199Z,99292.84
2022-12-29T01:46:27.433Z,99296.34
2022-12-29T01:49:05.934Z,99295.34
2022-12-29T01:51:39.927Z,99295.34
2022-12-29T01:54:17.128Z,99286.88
2022-12-29T01:56:44.864Z,99289.56
2022-12-29T01:59:18.802Z,99291.19
2022-12-29T02:01:46.270Z,99289.13
2022-12-29T02:04:14.071Z,99299.00
2022-12-29T02:07:00.456Z,99281.75
2022-12-29T02:09:27.482Z,99287.31
2022-12-29T02:11:54.807Z,99284.63
2022-12-29T02:14:21.707Z,99282.97
2022-12-29T02:17:27.806Z,99284.22
2022-12-29T02:20:41.673Z,99273.97
2022-12-29T02:23:34.247Z,99273.53
2022-12-29T02:26:44.180Z,99269.03
2022-12-29T02:29:25.737Z,99271.91
2022-12-29T02:32:06.668Z,99269.47
2022-12-29T02:35:00.674Z,99270.91
2022-12-29T02:37:38.306Z,99278.91
2022-12-29T02:40:29.153Z,99274.81
2022-12-29T02:43:15.052Z,99267.81
2022-12-29T02:46:20.338Z,99269.06
2022-12-29T02:48:55.432Z,99261.28
2022-12-29T02:51:48.033Z,99258.00
2022-12-29T02:54:37.028Z,99265.38
2022-12-29T02:57:04.250Z,99259.00
2022-12-29T02:59:31.433Z,99250.81
2022-12-29T03:02:47.086Z,99253.06
2022-12-29T03:05:27.583Z,99246.72
2022-12-29T03:08:32.923Z,99258.63
2022-12-29T03:11:30.964Z,99244.00
2022-12-29T03:14:46.409Z,99245.03
2022-12-29T03:17:36.644Z,99231.91
2022-12-29T03:20:10.407Z,99234.78
2022-12-29T03:22:45.947Z,99220.63
2022-12-29T03:25:28.889Z,99226.97
2022-12-29T03:28:06.062Z,99229.47
2022-12-29T03:30:40.371Z,99221.47
2022-12-29T03:33:13.504Z,99225.75
2022-12-29T03:35:44.827Z,99215.91
2022-12-29T03:38:19.419Z,99209.75
2022-12-29T03:40:56.655Z,99210.56
2022-12-29T03:43:26.921Z,99203.38
2022-12-29T03:45:55.399Z,99205.03
2022-12-29T03:48:22.953Z,99203.38
2022-12-29T03:50:51.463Z,99195.97
2022-12-29T03:53:19.937Z,99191.47
2022-12-29T03:55:47.595Z,99193.16
2022-12-29T03:58:14.574Z,99183.31
2022-12-29T04:00:51.985Z,99176.31
2022-12-29T04:03:19.087Z,99175.31
2022-12-29T04:05:46.031Z,99167.91
2022-12-29T04:08:13.054Z,99167.69
2022-12-29T04:10:40.242Z,99162.13
2022-12-29T04:13:07.843Z,99157.44
2022-12-29T04:15:35.624Z,99170.56
2022-12-29T04:18:02.860Z,99160.47
2022-12-29T04:20:48.074Z,99165.59
2022-12-29T04:23:15.193Z,99155.56
2022-12-29T04:25:45.898Z,99156.16
2022-12-29T04:28:15.294Z,99157.78
2022-12-29T04:31:01.598Z,99154.91
2022-12-29T04:33:40.756Z,99161.91
2022-12-29T04:36:08.028Z,99151.03
2022-12-29T04:38:36.943Z,99156.34
2022-12-29T04:41:05.366Z,99156.97
2022-12-29T04:43:33.631Z,99162.72
2022-12-29T04:46:24.209Z,99167.22
2022-12-29T04:49:09.179Z,99157.38
2022-12-29T04:51:53.438Z,99168.66
2022-12-29T04:54:20.886Z,99167.41
2022-12-29T04:56:55.696Z,99152.00
2022-12-29T04:59:22.720Z,99165.97
2022-12-29T05:01:53.017Z,99167.38
2022-12-29T05:04:20.122Z,99165.34
2022-12-29T05:06:48.579Z,99166.16
2022-12-29T05:09:15.562Z,99165.13
2022-12-29T05:11:42.558Z,99175.81
2022-12-29T05:14:10.396Z,99177.44
2022-12-29T05:16:38.303Z,99171.28
2022-12-29T05:19:06.031Z,99176.41
2022-12-29T05:21:33.770Z,99177.00
2022-12-29T05:24:00.902Z,99180.69
2022-12-29T05:26:28.740Z,99176.41
2022-12-29T05:29:05.571Z,99171.88
2022-12-29T05:31:33.612Z,99164.69
2022-12-29T05:34:01.168Z,99162.00
2022-12-29T05:36:31.654Z,99160.97
2022-12-29T05:39:03.793Z,99156.25
2022-12-29T05:41:31.283Z,99156.88
2022-12-29T05:44:16.819Z,99163.84
2022-12-29T05:46:45.239Z,99160.13
2022-12-29T05:49:18.823Z,99163.63
2022-12-29T05:52:08.727Z,99153.78
2022-12-29T05:54:36.199Z,99148.44
2022-12-29T05:57:08.435Z,99152.75
2022-12-29T05:59:35.471Z,99153.56
2022-12-29T06:02:03.050Z,99154.38
2022-12-29T06:04:30.091Z,99165.06
2022-12-29T06:06:57.388Z,99159.94
2022-12-29T06:09:36.266Z,99167.97
2022-12-29T06:12:04.553Z,99166.91
2022-12-29T06:14:31.503Z,99157.06
2022-12-29T06:16:59.333Z,99144.75
2022-12-29T06:19:26.473Z,99141.25
2022-12-29T06:21:54.001Z,99148.00
2022-12-29T06:24:21.841Z,99148.00
2022-12-29T06:26:48.817Z,99151.50
2022-12-29T06:29:18.017Z,99145.34
2022-12-29T06:31:50.260Z,99147.78
2022-12-29T06:34:17.481Z,99137.91
2022-12-29T06:36:44.401Z,99158.47
2022-12-29T06:39:12.038Z,99143.88
2022-12-29T06:41:39.138Z,99138.09
2022-12-29T06:44:29.053Z,99137.06
2022-12-29T06:47:00.974Z,99130.28
2022-12-29T06:49:27.891Z,99128.81
2022-12-29T06:51:54.859Z,99124.09
2022-12-29T06:54:21.777Z,99130.84
2022-12-29T06:56:48.721Z,99119.94
2022-12-29T06:59:15.624Z,99125.09
2022-12-29T07:01:42.689Z,99123.00
2022-12-29T07:04:09.676Z,99120.94
2022-12-29T07:06:36.937Z,99122.56
2022-12-29T07:09:03.900Z,99125.06
2022-12-29T07:11:30.804Z,99132.03
2022-12-29T07:14:04.508Z,99128.31
2022-12-29T07:16:32.564Z,99137.97
2022-12-29T07:19:00.435Z,99152.75
2022-12-29T07:21:27.365Z,99134.84
2022-12-29T07:23:55.839Z,99133.84
2022-12-29T07:26:22.879Z,99143.50
2022-12-29T07:28:49.809Z,99143.28
2022-12-29T07:31:21.176Z,99145.72
2022-12-29T07:33:49.169Z,99144.69
2022-12-29T07:36:18.253Z,99153.50
2022-12-29T07:38:45.193Z,99149.03
2022-12-29T07:41:12.146Z,99153.09
2022-12-29T07:43:39.692Z,99152.06
2022-12-29T07:46:55.492Z,99150.44
2022-12-29T07:49:19.802Z,99150.22
2022-12-29T07:51:46.711Z,99145.69
2022-12-29T07:54:13.750Z,99162.34
2022-12-29T07:56:40.708Z,99154.09
2022-12-29T07:59:07.745Z,99149.34
2022-12-29T08:01:34.792Z,99151.59
2022-12-29T08:04:01.920Z,99156.94
2022-12-29T08:06:30.032Z,99157.78
2022-12-29T08:08:57.908Z,99161.25
2022-12-29T08:11:25.082Z,99163.50
2022-12-29T08:13:52.464Z,99167.19
2022-12-29T08:16:19.595Z,99177.66
2022-12-29T08:18:46.523Z,99176.63
2022-12-29T08:21:13.461Z,99179.53
2022-12-29T08:23:40.416Z,99183.66
2022-12-29T08:26:07.343Z,99184.47
2022-12-29T08:28:34.336Z,99189.34
2022-12-29T08:31:03.931Z,99198.41
2022-12-29T08:33:31.029Z,99197.38
2022-12-29T08:36:06.911Z,99207.84
2022-12-29T08:38:34.163Z,99203.31
2022-12-29T08:41:04.447Z,99210.94
2022-12-29T08:43:31.776Z,99195.47
2022-12-29T08:45:59.720Z,99209.66
2022-12-29T08:48:27.584Z,99204.91
2022-12-29T08:50:54.837Z,99217.28
2022-12-29T08:53:21.884Z,99220.53
2022-12-29T08:56:04.213Z,99214.38
2022-12-29T08:58:38.152Z,99206.94
2022-12-29T09:01:05.384Z,99218.88
2022-12-29T09:06:21.371Z,99213.06
2022-12-29T09:08:48.273Z,99210.19
2022-12-29T09:11:23.139Z,99214.28
2022-12-29T09:13:50.823Z,99220.00
2022-12-29T09:16:18.995Z,99220.81
2022-12-29T09:18:46.184Z,99218.56
2022-12-29T09:21:13.679Z,99230.69
2022-12-29T09:23:41.359Z,99227.59
2022-12-29T09:26:09.600Z,99227.38
2022-12-29T09:28:37.743Z,99232.09
2022-12-29T09:31:05.203Z,99238.03
2022-12-29T09:33:34.361Z,99232.69
2022-12-29T09:36:01.321Z,99235.94
2022-12-29T09:38:29.427Z,99239.25
2022-12-29T09:41:14.134Z,99240.06
2022-12-29T09:44:16.304Z,99233.66
2022-12-29T09:46:49.091Z,99252.75
2022-12-29T09:49:46.962Z,99244.97
2022-12-29T09:52:32.019Z,99237.75
2022-12-29T09:55:33.147Z,99247.28
2022-12-29T09:58:06.712Z,99251.59
2022-12-29T10:01:01.322Z,99253.66
2022-12-29T10:03:54.235Z,99263.16
2022-12-29T10:07:19.405Z,99264.78
2022-12-29T10:09:46.587Z,99258.41
2022-12-29T10:12:30.880Z,99257.34
2022-12-29T10:15:33.150Z,99262.94
2022-12-29T10:18:25.085Z,99262.69
2022-12-29T10:21:40.789Z,99269.72
2022-12-29T10:24:12.562Z,99276.09
2022-12-29T10:26:44.848Z,99283.69
2022-12-29T10:29:21.326Z,99276.47
2022-12-29T10:32:05.914Z,99281.03
2022-12-29T10:34:39.371Z,99277.53
2022-12-29T10:37:16.958Z,99284.72
2022-12-29T10:39:53.006Z,99270.72
2022-12-29T10:42:38.333Z,99281.66
2022-12-29T10:45:07.070Z,99277.94
2022-12-29T10:47:53.875Z,99278.75
2022-12-29T10:50:21.217Z,99274.44
2022-12-29T10:52:49.438Z,99270.13
2022-12-29T10:55:51.546Z,99285.16
2022-12-29T10:58:21.836Z,99268.50
2022-12-29T11:00:55.242Z,99282.91
2022-12-29T11:04:00.031Z,99282.09
2022-12-29T11:06:30.181Z,99275.50
2022-12-29T11:09:17.078Z,99283.50
2022-12-29T11:11:44.067Z,99288.63
2022-12-29T11:14:22.347Z,99281.44
2022-12-29T11:17:01.663Z,99289.03
2022-12-29T11:19:36.112Z,99277.06
2022-12-29T11:22:32.911Z,99288.00
2022-12-29T11:25:13.180Z,99273.81
2022-12-29T11:27:40.761Z,99288.59
2022-12-29T11:30:25.963Z,99300.94
2022-12-29T11:32:55.525Z,99286.53
2022-12-29T11:35:37.304Z,99279.94
2022-12-29T11:38:22.995Z,99294.31
2022-12-29T11:40:50.667Z,99290.94
2022-12-29T11:43:44.063Z,99288.44
2022-12-29T11:46:37.282Z,99290.91
2022-12-29T11:49:05.453Z,99280.97
2022-12-29T11:51:44.873Z,99269.44
2022-12-29T11:54:32.193Z,99268.19
2022-12-29T11:57:09.832Z,99282.16
2022-12-29T11:59:44.622Z,99271.47
2022-12-29T12:02:42.613Z,99268.56
2022-12-29T12:05:24.177Z,99262.19
2022-12-29T12:08:01.915Z,99256.16
2022-12-29T12:11:03.121Z,99253.41
2022-12-29T12:13:46.894Z,99248.22
2022-12-29T12:16:19.320Z,99248.56
2022-12-29T12:19:13.347Z,99230.22
2022-12-29T12:21:46.066Z,99247.09
2022-12-29T12:24:48.281Z,99248.16
2022-12-29T12:27:21.653Z,99248.56
2022-12-29T12:30:12.969Z,99245.53
2022-12-29T12:32:43.876Z,99242.84
2022-12-29T12:35:25.002Z,99251.13
2022-12-29T12:38:33.535Z,99241.06
2022-12-29T12:41:39.596Z,99240.69
2022-12-29T12:44:56.523Z,99235.34
2022-12-29T12:47:40.562Z,99231.47
2022-12-29T12:50:30.365Z,99230.66
2022-12-29T12:53:38.624Z,99229.81
2022-12-29T12:56:52.547Z,99224.47
2022-12-29T12:59:51.537Z,99222.84
2022-12-29T13:02:39.421Z,99211.72
2022-12-29T13:05:33.405Z,99207.19
2022-12-29T13:08:45.283Z,99214.63
2022-12-29T13:11:26.730Z,99277.25
2022-12-29T13:14:24.019Z,99243.63
2022-12-29T13:17:16.433Z,99243.38
2022-12-29T13:20:12.245Z,99225.81
2022-12-29T13:23:05.452Z,99227.97
2022-12-29T13:25:43.900Z,99225.97
2022-12-29T13:29:11.907Z,99227.91
2022-12-29T13:32:07.868Z,99231.88
2022-12-29T13:35:21.928Z,99238.47
2022-12-29T13:38:11.272Z,99232.34
2022-12-29T13:40:46.267Z,99222.50
2022-12-29T13:43:17.052Z,99230.31
2022-12-29T13:45:46.309Z,99230.75
2022-12-29T13:48:22.469Z,99231.19
2022-12-29T13:50:58.310Z,99229.75
2022-12-29T13:54:17.588Z,99231.22
2022-12-29T13:56:52.762Z,99236.16
2022-12-29T13:59:27.671Z,99239.44
2022-12-29T14:02:09.744Z,99243.56
2022-12-29T14:04:37.363Z,99237.81
2022-12-29T14:07:17.928Z,99238.84
2022-12-29T14:09:55.950Z,99232.09
2022-12-29T14:12:31.284Z,99234.94
2022-12-29T14:15:09.671Z,99250.16
2022-12-29T14:17:44.633Z,99250.38
2022-12-29T14:20:23.829Z,99242.78
2022-12-29T14:23:09.873Z,99242.16
2022-12-29T14:25:58.343Z,99233.53
2022-12-29T14:28:39.040Z,99236.63
2022-12-29T14:31:31.944Z,99241.34
2022-12-29T14:34:07.977Z,99246.91
2022-12-29T14:36:38.735Z,99249.78
2022-12-29T14:39:37.382Z,99249.78
2022-12-29T14:42:10.420Z,99258.00
2022-12-29T14:44:56.115Z,99257.19
2022-12-29T14:47:37.834Z,99271.75
2022-12-29T14:50:26.097Z,99273.00
2022-12-29T14:53:04.180Z,99291.03
2022-12-29T14:55:40.871Z,99305.41
2022-12-29T14:58:33.206Z,99303.56
2022-12-29T15:01:05.124Z,99301.31
2022-12-29T15:03:53.590Z,99314.63
2022-12-29T15:06:23.280Z,99308.03
2022-12-29T15:08:52.060Z,99304.34
2022-12-29T15:11:36.389Z,99313.78
2022-12-29T15:14:04.222Z,99303.94
2022-12-29T15:16:37.673Z,99295.09
2022-12-29T15:19:06.136Z,99290.59
2022-12-29T15:21:36.475Z,99287.91
2022-12-29T15:24:05.017Z,99282.13
2022-12-29T15:26:41.326Z,99266.56
2022-12-29T15:29:41.861Z,99282.34
2022-12-29T15:32:28.422Z,99287.25
2022-12-29T15:35:00.932Z,99296.47
2022-12-29T15:37:36.821Z,99299.53
2022-12-29T15:40:04.921Z,99305.09
2022-12-29T15:42:56.703Z,99302.59
2022-12-29T15:45:33.100Z,99312.44
2022-12-29T15:48:00.703Z,99316.94
2022-12-29T15:50:31.584Z,99322.28
2022-12-29T15:52:59.986Z,99335.59
2022-12-29T15:55:39.685Z,99341.16
2022-12-29T15:58:21.715Z,99336.63
2022-12-29T16:00:55.604Z,99336.63
2022-12-29T16:03:26.194Z,99335.00
2022-12-29T16:06:09.035Z,99344.03
2022-12-29T16:08:41.128Z,99351.38
2022-12-29T16:11:41.558Z,99358.75
2022-12-29T16:14:16.165Z,99354.44
2022-12-29T16:16:45.743Z,99357.09
2022-12-29T16:19:38.302Z,99366.94
2022-12-29T16:22:18.387Z,99358.97
2022-12-29T16:24:46.484Z,99352.19
2022-12-29T16:27:40.874Z,99363.84
2022-12-29T16:30:24.330Z,99365.69
2022-12-29T16:33:00.567Z,99370.19
2022-12-29T16:35:30.908Z,99360.78
2022-12-29T16:38:19.113Z,99363.63
2022-12-29T16:41:03.418Z,99374.31
2022-12-29T16:43:42.597Z,99368.97
2022-12-29T16:46:32.887Z,99372.00
2022-12-29T16:49:00.094Z,99377.34
2022-12-29T16:51:37.231Z,99380.41
2022-12-29T16:54:05.140Z,99378.56
2022-12-29T16:56:36.273Z,99394.75
2022-12-29T16:59:17.247Z,99394.13
2022-12-29T17:01:44.594Z,99389.81
2022-12-29T17:04:14.464Z,99389.19
2022-12-29T17:06:41.945Z,99379.34
2022-12-29T17:09:27.477Z,99390.22
2022-12-29T17:12:08.814Z,99386.91
2022-12-29T17:14:59.904Z,99389.56
2022-12-29T17:17:43.403Z,99379.94
2022-12-29T17:20:29.143Z,99389.78
2022-12-29T17:22:56.811Z,99393.66
2022-12-29T17:25:33.303Z,99397.34
2022-12-29T17:28:05.000Z,99397.34
2022-12-29T17:30:35.932Z,99403.66
2022-12-29T17:33:13.323Z,99413.50
2022-12-29T17:35:40.245Z,99408.19
2022-12-29T17:38:19.879Z,99415.53
2022-12-29T17:40:47.252Z,99403.06
2022-12-29T17:43:16.470Z,99393.41
2022-12-29T17:45:45.101Z,99407.75
2022-12-29T17:48:15.345Z,99400.59
2022-12-29T17:50:43.876Z,99407.75
2022-12-29T17:53:19.766Z,99418.63
2022-12-29T17:55:46.845Z,99419.59
2022-12-29T17:58:23.676Z,99413.47
2022-12-29T18:00:54.804Z,99426.97
2022-12-29T18:03:28.681Z,99427.19
2022-12-29T18:05:56.266Z,99431.47
2022-12-29T18:08:23.364Z,99444.19
2022-12-29T18:10:53.809Z,99449.88
2022-12-29T18:13:43.622Z,99439.63
2022-12-29T18:16:13.580Z,99439.63
2022-12-29T18:18:40.597Z,99402.72
2022-12-29T18:21:17.064Z,99368.50
2022-12-29T18:23:44.363Z,99363.38
2022-12-29T18:26:27.692Z,99367.44
2022-12-29T18:28:56.670Z,99373.97
2022-12-29T18:31:30.552Z,99381.31
2022-12-29T18:33:59.929Z,99380.69
2022-12-29T18:36:27.654Z,99390.53
2022-12-29T18:38:54.980Z,99394.41
2022-12-29T18:41:25.448Z,99408.75
2022-12-29T18:43:52.848Z,99401.56
2022-12-29T18:46:23.239Z,99395.44
2022-12-29T18:48:51.884Z,99403.41
2022-12-29T18:51:26.094Z,99399.28
2022-12-29T18:53:54.102Z,99405.44
2022-12-29T18:56:23.393Z,99396.81
2022-12-29T18:58:51.453Z,99398.47
2022-12-29T19:01:27.798Z,99392.31
2022-12-29T19:03:55.294Z,99388.22
2022-12-29T19:06:23.166Z,99396.19
2022-12-29T19:08:50.123Z,99397.19
2022-12-29T19:11:17.788Z,99388.59
2022-12-29T19:13:44.819Z,99388.59
2022-12-29T19:16:21.633Z,99409.88
2022-12-29T19:19:05.884Z,99394.94
2022-12-29T19:21:36.760Z,99395.94
2022-12-29T19:24:04.002Z,99410.28
2022-12-29T19:26:36.216Z,99399.63
2022-12-29T19:29:04.400Z,99400.44
2022-12-29T19:31:31.422Z,99403.31
2022-12-29T19:33:58.368Z,99407.78
2022-12-29T19:36:25.451Z,99401.63
2022-12-29T19:38:53.215Z,99413.09
2022-12-29T19:41:21.059Z,99404.50
2022-12-29T19:43:47.997Z,99401.84
2022-12-29T19:46:18.021Z,99409.00
2022-12-29T19:48:45.221Z,99408.38
2022-12-29T19:51:17.090Z,99409.41
2022-12-29T19:53:45.881Z,99415.72
2022-12-29T19:56:14.321Z,99419.38
2022-12-29T19:58:46.931Z,99425.72
2022-12-29T20:01:22.112Z,99424.28
2022-12-29T20:03:50.109Z,99418.97
2022-12-29T20:06:17.399Z,99421.81
2022-12-29T20:08:44.321Z,99424.47
2022-12-29T20:11:17.479Z,99422.00
2022-12-29T20:13:44.988Z,99426.50
2022-12-29T20:16:16.412Z,99433.84
2022-12-29T20:18:44.186Z,99430.56
2022-12-29T20:21:21.867Z,99444.03
2022-12-29T20:23:51.169Z,99450.38
2022-12-29T20:26:28.835Z,99454.06
2022-12-29T20:29:00.755Z,99443.59
2022-12-29T20:31:34.460Z,99448.31
2022-12-29T20:34:01.795Z,99451.94
2022-12-29T20:36:33.293Z,99458.44
2022-12-29T20:39:06.600Z,99474.22
2022-12-29T20:41:33.882Z,99471.75
2022-12-29T20:44:02.237Z,99469.28
2022-12-29T20:46:36.474Z,99463.97
2022-12-29T20:49:08.691Z,99460.69
2022-12-29T20:52:04.375Z,99464.31
2022-12-29T20:54:23.517Z,99462.47
2022-12-29T20:56:51.978Z,99459.00
2022-12-29T20:59:28.106Z,99464.31
2022-12-29T21:01:56.746Z,99457.34
2022-12-29T21:04:23.930Z,99455.72
2022-12-29T21:06:50.830Z,99454.06
2022-12-29T21:09:18.591Z,99443.44
2022-12-29T21:11:46.666Z,99462.06
2022-12-29T21:14:13.816Z,99473.91
2022-12-29T21:16:40.869Z,99475.72
2022-12-29T21:19:07.798Z,99481.03
2022-12-29T21:21:35.069Z,99491.66
2022-12-29T21:24:05.984Z,99497.00
2022-12-29T21:26:33.821Z,99489.00
2022-12-29T21:29:03.299Z,99484.72
2022-12-29T21:31:37.125Z,99486.75
2022-12-29T21:34:06.179Z,99488.56
2022-12-29T21:36:33.351Z,99484.09
2022-12-29T21:39:00.753Z,99483.44
2022-12-29T21:41:27.727Z,99494.91
2022-12-29T21:44:13.877Z,99491.59
2022-12-29T21:46:43.801Z,99493.44
2022-12-29T21:49:10.805Z,99499.75
2022-12-29T21:51:49.893Z,99493.63
2022-12-29T21:54:41.908Z,99499.13
2022-12-29T21:57:10.758Z,99497.50
2022-12-29T21:59:56.676Z,99508.94
2022-12-29T22:02:45.793Z,99509.97
2022-12-29T22:05:34.230Z,99508.31
2022-12-29T22:08:21.624Z,99518.09
2022-12-29T22:11:07.578Z,99522.59
2022-12-29T22:13:38.299Z,99523.63
2022-12-29T22:16:08.133Z,99526.28
2022-12-29T22:18:35.277Z,99523.81
2022-12-29T22:21:10.371Z,99543.25
2022-12-29T22:23:38.032Z,99546.09
2022-12-29T22:26:08.205Z,99554.06
2022-12-29T22:28:40.373Z,99556.72
2022-12-29T22:31:27.910Z,99557.75
2022-12-29T22:34:01.167Z,99562.41
2022-12-29T22:36:29.245Z,99573.84
2022-12-29T22:38:56.291Z,99574.88
2022-12-29T22:41:23.462Z,99574.06
2022-12-29T22:43:50.388Z,99591.66
2022-12-29T22:46:17.364Z,99583.03
2022-12-29T22:48:44.384Z,99588.34
2022-12-29T22:51:11.337Z,99596.34
2022-12-29T22:53:39.441Z,99600.84
2022-12-29T22:56:13.195Z,99597.34
2022-12-29T22:58:46.130Z,99593.03
2022-12-29T23:01:16.532Z,99604.69
2022-12-29T23:03:44.594Z,99619.81
2022-12-29T23:06:13.832Z,99620.81
2022-12-29T23:08:40.733Z,99626.94
2022-12-29T23:11:10.331Z,99621.63
2022-12-29T23:13:38.674Z,99618.13
2022-12-29T23:16:05.731Z,99614.84
2022-12-29T23:18:32.824Z,99623.84
2022-12-29T23:20:59.932Z,99623.84
2022-12-29T23:23:49.226Z,99622.19
2022-12-29T23:26:18.735Z,99624.19
2022-12-29T23:28:46.567Z,99627.03
2022-12-29T23:31:14.811Z,99628.69
2022-12-29T23:33:41.993Z,99621.72
2022-12-29T23:36:10.148Z,99624.38
2022-12-29T23:38:37.438Z,99624.38
2022-12-29T23:41:04.671Z,99626.22
2022-12-29T23:43:32.013Z,99627.03
2022-12-29T23:45:59.250Z,99634.19
2022-12-29T23:48:26.171Z,99634.19
2022-12-29T23:50:53.114Z,99634.19
2022-12-29T23:53:20.015Z,99628.03
2022-12-29T23:55:54.709Z,99623.75
2022-12-29T23:58:22.557Z,99629.06
